This is the latest recevied weather packets stored in our database for station/object KC9MWQ-13. If no packets are shown the sender has not sent any weather packets the latest 10 day(s).
| Time | Temp. | Humidity | Pressure | Rain* | Wind** | Luminosity | Snow |
|---|---|---|---|---|---|---|---|
| 1777987829 | 14.44° C | 97% | 1008.7 hPa | 0 mm | - | 32 W/m² | - |
| 1777987526 | 14.44° C | 96% | 1008.4 hPa | 0 mm | - | 73 W/m² | - |
| 1777987224 | 14.44° C | 97% | 1008.2 hPa | 0 mm | - | 99 W/m² | - |
| 1777986920 | 14.44° C | 97% | 1008.1 hPa | 0 mm | - | 102 W/m² | - |
| 1777986618 | 14.44° C | 97% | 1007.9 hPa | 0 mm | - | 131 W/m² | - |
| 1777986316 | 14.44° C | 97% | 1007.8 hPa | 0 mm | - | 151 W/m² | - |
| 1777986014 | 13.89° C | 98% | 1007.8 hPa | 0 mm | - | 124 W/m² | - |
| 1777985710 | 13.89° C | 98% | 1007.8 hPa | 0 mm | - | 128 W/m² | - |
| 1777985407 | 13.89° C | 98% | 1008 hPa | 0 mm | - | 58 W/m² | - |
| 1777985104 | 13.89° C | 98% | 1008 hPa | 0 mm | - | 37 W/m² | - |
| 1777984800 | 13.89° C | 98% | 1008.2 hPa | 0 mm | - | 17 W/m² | - |
| 1777984496 | 13.89° C | 98% | 1008.2 hPa | 0 mm | - | 24 W/m² | - |
| 1777984193 | 13.89° C | 98% | 1007.7 hPa | 0 mm | - | 47 W/m² | - |
| 1777983890 | 13.89° C | 97% | 1007.7 hPa | 0 mm | - | 48 W/m² | - |
| 1777983587 | 13.89° C | 97% | 1007.8 hPa | 0 mm | - | 79 W/m² | - |
| 1777983284 | 13.89° C | 97% | 1007.1 hPa | 0 mm | - | 139 W/m² | - |
| 1777982979 | 13.89° C | 97% | 1007 hPa | 0 mm | - | 115 W/m² | - |
| 1777982676 | 13.89° C | 97% | 1006.9 hPa | 0 mm | - | 87 W/m² | - |
| 1777982375 | 13.89° C | 97% | 1006.8 hPa | 0 mm | - | 99 W/m² | - |
| 1777982072 | 13.89° C | 97% | 1006.9 hPa | 0 mm | - | 113 W/m² | - |
| 1777981770 | 13.33° C | 98% | 1007.1 hPa | 0 mm | - | 104 W/m² | - |
| 1777981466 | 13.33° C | 98% | 1007.4 hPa | 0 mm | - | 74 W/m² | - |
| 1777981162 | 13.33° C | 98% | 1007.6 hPa | 0 mm | - | 63 W/m² | - |
| 1777980859 | 13.33° C | 98% | 1007.7 hPa | 0 mm | - | 57 W/m² | - |
| 1777980555 | 13.33° C | 98% | 1008 hPa | 0 mm | - | 56 W/m² | - |
* Rain latest hour (hover to see other rain measurements)
** Current wind speed in m/s (hover to see current wind gust speed)